Nearby METAR Reports

 

EGTE - Exeter Airport, United Kingdom
Distance from station: S 19km
Updated: 11/05/2021 16:20
NOT Current
Nearby showers, Mostly cloudy
Nearby showers, Mostly cloudy
 Wind from E
Wind: E 24 km/h, Gust: 56 km/h
Temperature: 10°C
Wind Chill: 7°C
Dew Point: 9°C
Humidity: 94%
Barometer: 1001 hPa
Summary: Nearby Showers
Clouds: Mostly cloudy
Visibility: 10 km
Cloud details: Few Clouds 152 m
Mostly cloudy 305 m
2021/05/11 15:20 EGTE 111520Z 09013G30KT 050V150 9999 7000N VCSH FEW005 BKN010CB 10/09 Q1001 RERA
EGDY - Yeovilton (navy), United Kingdom
Distance from station: ENE 55km
Updated: 11/05/2021 20:20
Partly cloudy
Partly cloudy
 Wind from WSW
Wind: WSW 17 km/h
Temperature: 11°C
Dew Point: 6°C
Humidity: 72%
Barometer: 1005 hPa
Clouds: Partly cloudy
Visibility: 10 km
Cloud details: Few Clouds 914 m
Partly cloudy 1372 m
2021/05/11 19:20 EGDY 111920Z 24009KT 9999 FEW030 SCT045 11/06 Q1005 NOSIG RMK BLU BLU
 
EGFF - Cardiff-Wales Ar, United Kingdom
Distance from station: N 56km
Updated: 11/05/2021 20:20
Mostly cloudy
Mostly cloudy
 Wind from W
Wind: W 15 km/h
Temperature: 8°C
Wind Chill: 5°C
Dew Point: 7°C
Humidity: 93%
Barometer: 1005 hPa
Clouds: Mostly cloudy
Visibility: 10 km
Cloud details: Few Clouds 335 m
Partly cloudy 823 m
Mostly cloudy 1097 m
2021/05/11 19:20 EGFF 111920Z AUTO 27008KT 9999 FEW011 SCT027 BKN036 08/07 Q1005
EGDX - St Athan Raf, United Kingdom
Distance from station: N 58km
Updated: 01/04/2019 13:50
NOT Current
Clear
Clear
 Wind from E
Wind: E 15 km/h
Temperature: 11°C
Dew Point: 5°C
Humidity: 67%
Barometer: 1019 hPa
Clouds: Clear
Visibility: 10 km
2019/04/01 12:50 EGDX 011250Z AUTO 10008KT 9999 NCD 11/05 Q1019
 
EGGD - Bristol/Lulsgate, United Kingdom
Distance from station: NE 71km
Updated: 11/05/2021 20:20
Overcast
Overcast
 Wind from SW
Wind: SW 20 km/h
Temperature: 8°C
Wind Chill: 4°C
Dew Point: 6°C
Humidity: 87%
Barometer: 1004 hPa
Clouds: Overcast
Visibility: 10 km
Cloud details: Partly cloudy 335 m
Mostly cloudy 488 m
Overcast 762 m
2021/05/11 19:20 EGGD 111920Z AUTO 22011KT 9999 SCT011 BKN016 OVC025 08/06 Q1004